createdAt,value
2023-05-05T01:31:18.482Z,74.33
2023-05-05T01:34:09.303Z,59.78
2023-05-05T01:36:42.642Z,44.58
2023-05-05T01:39:33.231Z,49.80
2023-05-05T01:42:08.120Z,46.50
2023-05-05T01:44:56.977Z,42.23
2023-05-05T01:47:26.724Z,39.35
2023-05-05T01:49:57.404Z,32.50
2023-05-05T01:52:28.429Z,32.13
2023-05-05T01:54:59.245Z,29.23
2023-05-05T01:57:47.196Z,38.08
2023-05-05T02:00:18.462Z,38.63
2023-05-05T02:02:49.906Z,37.28
2023-05-05T02:05:26.388Z,35.65
2023-05-05T02:08:15.655Z,32.78
2023-05-05T02:10:50.890Z,36.80
2023-05-05T02:13:24.093Z,37.60
2023-05-05T02:16:12.123Z,44.20
2023-05-05T02:18:42.537Z,49.65
2023-05-05T02:21:14.714Z,56.60
2023-05-05T02:23:43.998Z,49.90
2023-05-05T02:26:18.048Z,40.47
2023-05-05T02:28:53.533Z,35.63
2023-05-05T02:31:25.430Z,36.40
2023-05-05T02:33:58.074Z,41.20
2023-05-05T02:36:31.802Z,34.00
2023-05-05T02:39:05.107Z,33.97
2023-05-05T02:41:36.603Z,30.98
2023-05-05T02:44:43.024Z,36.63
2023-05-05T02:47:12.210Z,30.80
2023-05-05T02:49:42.017Z,29.05
2023-05-05T02:52:12.906Z,22.92
2023-05-05T02:54:42.224Z,34.33
2023-05-05T02:57:15.512Z,35.47
2023-05-05T02:59:55.084Z,26.98
2023-05-05T03:02:45.016Z,25.60
2023-05-05T03:05:33.472Z,21.88
2023-05-05T03:08:06.409Z,28.60
2023-05-05T03:10:42.040Z,22.08
2023-05-05T03:13:13.725Z,25.38
2023-05-05T03:15:48.446Z,34.83
2023-05-05T03:18:36.278Z,31.40
2023-05-05T03:21:23.855Z,29.85
2023-05-05T03:23:54.592Z,28.27
2023-05-05T03:26:25.054Z,31.70
2023-05-05T03:29:12.782Z,32.45
2023-05-05T03:31:59.337Z,28.45
2023-05-05T03:34:47.101Z,29.70
2023-05-05T03:37:16.366Z,29.73
2023-05-05T03:39:47.196Z,36.15
2023-05-05T03:42:34.639Z,39.60
2023-05-05T03:45:03.891Z,28.30
2023-05-05T03:47:34.619Z,33.83
2023-05-05T03:50:03.774Z,34.60
2023-05-05T03:52:32.965Z,37.50
2023-05-05T03:55:03.612Z,47.92
2023-05-05T03:57:34.745Z,48.63
2023-05-05T04:00:03.990Z,49.13
2023-05-05T04:02:39.023Z,52.72
2023-05-05T04:05:09.821Z,45.15
2023-05-05T04:07:38.983Z,52.45
2023-05-05T04:10:11.097Z,61.53
2023-05-05T04:12:59.018Z,56.28
2023-05-05T04:15:30.400Z,54.20
2023-05-05T04:18:00.131Z,49.35
2023-05-05T04:20:31.027Z,46.08
2023-05-05T04:23:00.405Z,55.38
2023-05-05T04:25:31.099Z,45.33
2023-05-05T04:28:00.222Z,53.63
2023-05-05T04:30:29.473Z,60.78
2023-05-05T04:33:15.605Z,43.20
2023-05-05T04:36:02.714Z,48.70
2023-05-05T04:38:31.977Z,48.65
2023-05-05T04:41:02.574Z,47.38
2023-05-05T04:43:31.738Z,46.20
2023-05-05T04:46:19.160Z,51.33
2023-05-05T04:49:23.830Z,44.33
2023-05-05T04:54:21.837Z,39.50
2023-05-05T04:56:52.522Z,36.38
2023-05-05T04:59:56.870Z,38.40
2023-05-05T05:02:26.125Z,37.58
2023-05-05T05:04:55.585Z,41.08
2023-05-05T05:07:43.029Z,36.65
2023-05-05T05:10:12.729Z,52.80
2023-05-05T05:13:01.894Z,42.22
2023-05-05T05:15:31.105Z,35.03
2023-05-05T05:18:18.454Z,32.75
2023-05-05T05:20:48.028Z,32.75
2023-05-05T05:23:17.127Z,34.47
2023-05-05T05:25:46.621Z,46.05
2023-05-05T05:28:17.242Z,34.55
2023-05-05T05:30:46.505Z,35.67
2023-05-05T05:33:32.621Z,30.60
2023-05-05T05:36:01.910Z,37.38
2023-05-05T05:38:31.103Z,34.70
2023-05-05T05:41:17.065Z,29.98
2023-05-05T05:43:47.882Z,30.75
2023-05-05T05:46:35.353Z,36.78
2023-05-05T05:49:22.533Z,28.30
2023-05-05T05:51:51.747Z,29.83
2023-05-05T05:54:39.440Z,33.00
2023-05-05T05:57:08.790Z,33.15
2023-05-05T05:59:45.140Z,32.30
2023-05-05T06:02:17.660Z,32.38
2023-05-05T06:05:05.057Z,34.50
2023-05-05T06:07:35.855Z,39.47
2023-05-05T06:10:22.778Z,38.47
2023-05-05T06:12:55.590Z,42.90
2023-05-05T06:15:26.464Z,44.20
2023-05-05T06:17:55.717Z,39.05
2023-05-05T06:20:25.464Z,36.25
2023-05-05T06:22:55.021Z,42.28
2023-05-05T06:25:24.248Z,39.95
2023-05-05T06:27:53.684Z,38.65
2023-05-05T06:30:22.934Z,42.38
2023-05-05T06:32:54.861Z,37.17
2023-05-05T06:35:24.817Z,36.08
2023-05-05T06:37:54.061Z,35.20
2023-05-05T06:40:32.334Z,35.35
2023-05-05T06:43:01.547Z,39.25
2023-05-05T06:46:06.463Z,36.03
2023-05-05T06:48:37.356Z,42.88
2023-05-05T06:51:06.585Z,35.65
2023-05-05T06:53:53.766Z,45.00
2023-05-05T06:56:22.914Z,38.70
2023-05-05T06:58:52.294Z,38.13
2023-05-05T07:01:39.283Z,36.75
2023-05-05T07:04:09.975Z,40.03
2023-05-05T07:06:58.827Z,40.17
2023-05-05T07:09:28.128Z,26.73
2023-05-05T07:12:32.558Z,31.45
2023-05-05T07:15:07.044Z,34.15
2023-05-05T07:18:02.360Z,27.75
2023-05-05T07:20:33.079Z,30.73
2023-05-05T07:23:02.261Z,37.38
2023-05-05T07:25:31.465Z,37.05
2023-05-05T07:28:00.829Z,36.00
2023-05-05T07:30:30.065Z,29.58
2023-05-05T07:32:59.297Z,31.95
2023-05-05T07:35:29.075Z,36.90
2023-05-05T07:37:59.782Z,29.83
2023-05-05T07:40:29.022Z,33.35
2023-05-05T07:42:58.144Z,46.38
2023-05-05T07:45:29.356Z,42.70
2023-05-05T07:47:58.640Z,32.13
2023-05-05T07:50:28.086Z,34.22
2023-05-05T07:53:06.144Z,36.70
2023-05-05T07:55:44.181Z,35.72
2023-05-05T07:58:13.400Z,37.30
2023-05-05T08:00:44.260Z,37.60
2023-05-05T08:03:13.903Z,36.83
2023-05-05T08:06:00.026Z,29.73
2023-05-05T08:08:46.023Z,40.85
2023-05-05T08:11:35.298Z,31.52
2023-05-05T08:14:04.529Z,37.55
2023-05-05T08:16:34.017Z,32.50
2023-05-05T08:19:06.282Z,30.25
2023-05-05T08:21:39.071Z,32.88
